sensor_id;sensor_type;location;lat;lon;timestamp;P1;durP1;ratioP1;P2;durP2;ratioP2
54241;SDS011;40156;51.080;17.082;2022-09-27T00:01:12;65.82;;;26.50;;
54241;SDS011;40156;51.080;17.082;2022-09-27T00:03:41;79.68;;;30.77;;
54241;SDS011;40156;51.080;17.082;2022-09-27T00:06:15;74.60;;;28.20;;
54241;SDS011;40156;51.080;17.082;2022-09-27T00:08:45;60.72;;;25.92;;
54241;SDS011;40156;51.080;17.082;2022-09-27T00:13:45;55.47;;;22.27;;
54241;SDS011;40156;51.080;17.082;2022-09-27T00:16:13;65.70;;;26.15;;
54241;SDS011;40156;51.080;17.082;2022-09-27T00:18:40;62.30;;;25.42;;
54241;SDS011;40156;51.080;17.082;2022-09-27T00:21:09;49.45;;;22.98;;
54241;SDS011;40156;51.080;17.082;2022-09-27T00:23:37;52.38;;;22.23;;
54241;SDS011;40156;51.080;17.082;2022-09-27T00:26:05;47.08;;;20.63;;
54241;SDS011;40156;51.080;17.082;2022-09-27T00:28:33;49.28;;;21.52;;
54241;SDS011;40156;51.080;17.082;2022-09-27T00:34:23;55.90;;;22.70;;
54241;SDS011;40156;51.080;17.082;2022-09-27T00:40:13;51.50;;;22.00;;
54241;SDS011;40156;51.080;17.082;2022-09-27T00:46:20;56.45;;;22.80;;
54241;SDS011;40156;51.080;17.082;2022-09-27T00:48:49;73.63;;;27.58;;
54241;SDS011;40156;51.080;17.082;2022-09-27T00:51:20;68.70;;;26.90;;
54241;SDS011;40156;51.080;17.082;2022-09-27T01:00:52;51.22;;;22.05;;
54241;SDS011;40156;51.080;17.082;2022-09-27T01:03:28;53.08;;;21.45;;
54241;SDS011;40156;51.080;17.082;2022-09-27T01:05:56;58.17;;;21.58;;
54241;SDS011;40156;51.080;17.082;2022-09-27T01:08:25;52.42;;;22.48;;
54241;SDS011;40156;51.080;17.082;2022-09-27T01:11:04;50.67;;;20.80;;
54241;SDS011;40156;51.080;17.082;2022-09-27T01:13:42;49.38;;;20.77;;
54241;SDS011;40156;51.080;17.082;2022-09-27T01:16:17;50.28;;;21.02;;
54241;SDS011;40156;51.080;17.082;2022-09-27T01:22:26;43.45;;;18.90;;
54241;SDS011;40156;51.080;17.082;2022-09-27T01:27:34;42.08;;;18.83;;
54241;SDS011;40156;51.080;17.082;2022-09-27T01:33:39;40.05;;;16.60;;
54241;SDS011;40156;51.080;17.082;2022-09-27T01:48:12;45.53;;;18.27;;
54241;SDS011;40156;51.080;17.082;2022-09-27T01:50:43;38.58;;;17.85;;
54241;SDS011;40156;51.080;17.082;2022-09-27T01:53:14;40.83;;;17.92;;
54241;SDS011;40156;51.080;17.082;2022-09-27T01:55:43;43.83;;;18.73;;
54241;SDS011;40156;51.080;17.082;2022-09-27T02:01:57;45.30;;;20.13;;
54241;SDS011;40156;51.080;17.082;2022-09-27T02:04:27;39.95;;;19.40;;
54241;SDS011;40156;51.080;17.082;2022-09-27T02:06:57;65.78;;;25.52;;
54241;SDS011;40156;51.080;17.082;2022-09-27T02:13:01;42.67;;;18.80;;
54241;SDS011;40156;51.080;17.082;2022-09-27T02:15:33;43.92;;;18.75;;
54241;SDS011;40156;51.080;17.082;2022-09-27T02:18:09;46.47;;;20.35;;
54241;SDS011;40156;51.080;17.082;2022-09-27T02:20:43;59.20;;;22.75;;
54241;SDS011;40156;51.080;17.082;2022-09-27T02:26:38;52.03;;;22.38;;
54241;SDS011;40156;51.080;17.082;2022-09-27T02:31:36;44.55;;;18.92;;
54241;SDS011;40156;51.080;17.082;2022-09-27T02:37:35;49.78;;;20.52;;
54241;SDS011;40156;51.080;17.082;2022-09-27T02:40:03;56.35;;;22.20;;
54241;SDS011;40156;51.080;17.082;2022-09-27T02:42:30;50.15;;;21.92;;
54241;SDS011;40156;51.080;17.082;2022-09-27T02:44:59;41.72;;;18.38;;
54241;SDS011;40156;51.080;17.082;2022-09-27T03:08:39;44.17;;;18.40;;
54241;SDS011;40156;51.080;17.082;2022-09-27T03:11:06;40.05;;;18.00;;
54241;SDS011;40156;51.080;17.082;2022-09-27T03:17:05;35.22;;;17.10;;
54241;SDS011;40156;51.080;17.082;2022-09-27T03:19:33;35.55;;;16.88;;
54241;SDS011;40156;51.080;17.082;2022-09-27T03:22:00;40.90;;;17.02;;
54241;SDS011;40156;51.080;17.082;2022-09-27T03:27:59;38.45;;;17.15;;
54241;SDS011;40156;51.080;17.082;2022-09-27T03:30:27;34.30;;;17.98;;
54241;SDS011;40156;51.080;17.082;2022-09-27T03:32:54;41.67;;;18.25;;
54241;SDS011;40156;51.080;17.082;2022-09-27T03:35:21;42.03;;;18.58;;
54241;SDS011;40156;51.080;17.082;2022-09-27T03:41:21;41.83;;;17.23;;
54241;SDS011;40156;51.080;17.082;2022-09-27T03:47:20;34.80;;;18.27;;
54241;SDS011;40156;51.080;17.082;2022-09-27T03:49:47;33.92;;;16.10;;
54241;SDS011;40156;51.080;17.082;2022-09-27T03:56:06;42.08;;;19.10;;
54241;SDS011;40156;51.080;17.082;2022-09-27T03:58:33;44.25;;;19.75;;
54241;SDS011;40156;51.080;17.082;2022-09-27T04:01:01;42.50;;;20.02;;
54241;SDS011;40156;51.080;17.082;2022-09-27T04:06:50;42.17;;;18.60;;
54241;SDS011;40156;51.080;17.082;2022-09-27T04:09:17;39.38;;;18.90;;
54241;SDS011;40156;51.080;17.082;2022-09-27T04:11:45;40.55;;;19.35;;
54241;SDS011;40156;51.080;17.082;2022-09-27T04:17:43;41.42;;;19.83;;
54241;SDS011;40156;51.080;17.082;2022-09-27T04:20:11;44.35;;;19.58;;
54241;SDS011;40156;51.080;17.082;2022-09-27T04:22:41;39.80;;;18.05;;
54241;SDS011;40156;51.080;17.082;2022-09-27T04:25:08;45.88;;;19.20;;
54241;SDS011;40156;51.080;17.082;2022-09-27T04:31:08;43.67;;;19.80;;
54241;SDS011;40156;51.080;17.082;2022-09-27T04:37:07;41.85;;;19.20;;
54241;SDS011;40156;51.080;17.082;2022-09-27T04:42:57;36.63;;;18.08;;
54241;SDS011;40156;51.080;17.082;2022-09-27T04:45:24;42.75;;;19.25;;
54241;SDS011;40156;51.080;17.082;2022-09-27T04:51:14;38.60;;;17.60;;
54241;SDS011;40156;51.080;17.082;2022-09-27T04:57:13;35.70;;;17.67;;
54241;SDS011;40156;51.080;17.082;2022-09-27T04:59:40;37.78;;;17.38;;
54241;SDS011;40156;51.080;17.082;2022-09-27T05:02:08;36.13;;;16.52;;
54241;SDS011;40156;51.080;17.082;2022-09-27T05:08:06;31.73;;;15.73;;
54241;SDS011;40156;51.080;17.082;2022-09-27T05:10:34;34.95;;;15.82;;
54241;SDS011;40156;51.080;17.082;2022-09-27T05:13:01;38.78;;;16.35;;
54241;SDS011;40156;51.080;17.082;2022-09-27T05:15:29;33.47;;;15.60;;
54241;SDS011;40156;51.080;17.082;2022-09-27T05:21:28;41.88;;;17.35;;
54241;SDS011;40156;51.080;17.082;2022-09-27T05:27:18;33.72;;;16.17;;
54241;SDS011;40156;51.080;17.082;2022-09-27T05:29:46;40.83;;;17.42;;
54241;SDS011;40156;51.080;17.082;2022-09-27T05:35:55;35.13;;;16.65;;
54241;SDS011;40156;51.080;17.082;2022-09-27T05:38:23;37.60;;;16.08;;
54241;SDS011;40156;51.080;17.082;2022-09-27T05:40:50;37.20;;;17.20;;
54241;SDS011;40156;51.080;17.082;2022-09-27T05:46:49;34.45;;;17.23;;
54241;SDS011;40156;51.080;17.082;2022-09-27T05:49:17;35.08;;;16.90;;
54241;SDS011;40156;51.080;17.082;2022-09-27T05:51:44;34.80;;;16.95;;
54241;SDS011;40156;51.080;17.082;2022-09-27T06:01:39;38.17;;;16.90;;
54241;SDS011;40156;51.080;17.082;2022-09-27T06:04:07;35.83;;;16.13;;
54241;SDS011;40156;51.080;17.082;2022-09-27T06:06:35;29.17;;;15.75;;
54241;SDS011;40156;51.080;17.082;2022-09-27T06:12:34;28.75;;;15.10;;
54241;SDS011;40156;51.080;17.082;2022-09-27T06:15:01;27.77;;;14.10;;
54241;SDS011;40156;51.080;17.082;2022-09-27T06:21:01;32.63;;;15.43;;
54241;SDS011;40156;51.080;17.082;2022-09-27T06:27:00;30.95;;;13.73;;
54241;SDS011;40156;51.080;17.082;2022-09-27T06:29:28;29.70;;;15.57;;
54241;SDS011;40156;51.080;17.082;2022-09-27T06:31:56;28.55;;;14.25;;
54241;SDS011;40156;51.080;17.082;2022-09-27T06:37:55;27.80;;;13.93;;
54241;SDS011;40156;51.080;17.082;2022-09-27T06:40:22;28.92;;;14.05;;
54241;SDS011;40156;51.080;17.082;2022-09-27T06:45:37;28.75;;;14.32;;
54241;SDS011;40156;51.080;17.082;2022-09-27T06:51:36;23.60;;;13.95;;
54241;SDS011;40156;51.080;17.082;2022-09-27T06:57:26;26.75;;;14.45;;
54241;SDS011;40156;51.080;17.082;2022-09-27T06:59:54;30.08;;;15.68;;
54241;SDS011;40156;51.080;17.082;2022-09-27T07:02:21;28.52;;;13.60;;
54241;SDS011;40156;51.080;17.082;2022-09-27T07:04:48;27.50;;;13.63;;
54241;SDS011;40156;51.080;17.082;2022-09-27T07:07:16;27.88;;;14.20;;
54241;SDS011;40156;51.080;17.082;2022-09-27T07:09:43;28.75;;;14.95;;
54241;SDS011;40156;51.080;17.082;2022-09-27T07:15:33;27.35;;;14.00;;
54241;SDS011;40156;51.080;17.082;2022-09-27T07:18:00;26.67;;;13.95;;
54241;SDS011;40156;51.080;17.082;2022-09-27T07:20:28;29.10;;;14.40;;
54241;SDS011;40156;51.080;17.082;2022-09-27T07:26:37;26.00;;;14.32;;
54241;SDS011;40156;51.080;17.082;2022-09-27T07:32:36;27.35;;;12.85;;
54241;SDS011;40156;51.080;17.082;2022-09-27T07:35:04;29.75;;;14.25;;
54241;SDS011;40156;51.080;17.082;2022-09-27T07:37:32;32.83;;;14.18;;
54241;SDS011;40156;51.080;17.082;2022-09-27T07:40:04;27.83;;;14.57;;
54241;SDS011;40156;51.080;17.082;2022-09-27T07:46:03;29.02;;;14.32;;
54241;SDS011;40156;51.080;17.082;2022-09-27T07:48:30;28.25;;;14.10;;
54241;SDS011;40156;51.080;17.082;2022-09-27T07:51:00;28.58;;;15.43;;
54241;SDS011;40156;51.080;17.082;2022-09-27T07:53:27;33.55;;;15.48;;
54241;SDS011;40156;51.080;17.082;2022-09-27T07:55:57;25.98;;;14.10;;
54241;SDS011;40156;51.080;17.082;2022-09-27T07:58:24;24.27;;;13.88;;
54241;SDS011;40156;51.080;17.082;2022-09-27T08:00:52;30.50;;;15.60;;
54241;SDS011;40156;51.080;17.082;2022-09-27T08:03:19;30.13;;;14.27;;
54241;SDS011;40156;51.080;17.082;2022-09-27T08:05:47;30.40;;;14.48;;
54241;SDS011;40156;51.080;17.082;2022-09-27T08:08:15;27.15;;;13.05;;
54241;SDS011;40156;51.080;17.082;2022-09-27T08:14:14;27.48;;;12.90;;
54241;SDS011;40156;51.080;17.082;2022-09-27T08:20:13;29.58;;;14.07;;
54241;SDS011;40156;51.080;17.082;2022-09-27T08:22:41;26.90;;;14.45;;
54241;SDS011;40156;51.080;17.082;2022-09-27T08:25:09;28.60;;;15.25;;
54241;SDS011;40156;51.080;17.082;2022-09-27T08:27:36;28.30;;;14.95;;
54241;SDS011;40156;51.080;17.082;2022-09-27T08:30:11;25.90;;;14.63;;
54241;SDS011;40156;51.080;17.082;2022-09-27T08:32:41;26.95;;;14.18;;
54241;SDS011;40156;51.080;17.082;2022-09-27T08:35:08;24.85;;;13.38;;
54241;SDS011;40156;51.080;17.082;2022-09-27T08:37:36;24.90;;;13.75;;
54241;SDS011;40156;51.080;17.082;2022-09-27T08:43:37;22.67;;;13.05;;
54241;SDS011;40156;51.080;17.082;2022-09-27T08:52:05;33.65;;;16.77;;
54241;SDS011;40156;51.080;17.082;2022-09-27T09:01:50;23.52;;;12.55;;
54241;SDS011;40156;51.080;17.082;2022-09-27T09:04:24;19.83;;;11.30;;
54241;SDS011;40156;51.080;17.082;2022-09-27T09:26:37;24.38;;;13.13;;
54241;SDS011;40156;51.080;17.082;2022-09-27T09:34:16;21.38;;;11.30;;
54241;SDS011;40156;51.080;17.082;2022-09-27T09:42:45;21.23;;;11.65;;
54241;SDS011;40156;51.080;17.082;2022-09-27T09:48:54;22.85;;;10.73;;
54241;SDS011;40156;51.080;17.082;2022-09-27T09:51:27;14.82;;;8.35;;
54241;SDS011;40156;51.080;17.082;2022-09-27T09:54:07;19.27;;;9.10;;
54241;SDS011;40156;51.080;17.082;2022-09-27T09:56:47;18.85;;;8.90;;
54241;SDS011;40156;51.080;17.082;2022-09-27T09:59:26;16.00;;;9.45;;
54241;SDS011;40156;51.080;17.082;2022-09-27T10:01:57;16.23;;;9.60;;
54241;SDS011;40156;51.080;17.082;2022-09-27T10:04:26;15.30;;;9.57;;
54241;SDS011;40156;51.080;17.082;2022-09-27T10:06:55;17.60;;;10.25;;
54241;SDS011;40156;51.080;17.082;2022-09-27T10:12:59;13.25;;;7.82;;
54241;SDS011;40156;51.080;17.082;2022-09-27T10:15:29;16.35;;;9.27;;
54241;SDS011;40156;51.080;17.082;2022-09-27T10:17:57;15.63;;;9.23;;
54241;SDS011;40156;51.080;17.082;2022-09-27T10:20:32;16.27;;;10.05;;
54241;SDS011;40156;51.080;17.082;2022-09-27T10:23:13;16.98;;;9.32;;
54241;SDS011;40156;51.080;17.082;2022-09-27T10:26:16;19.00;;;11.10;;
54241;SDS011;40156;51.080;17.082;2022-09-27T10:28:39;18.00;;;10.93;;
54241;SDS011;40156;51.080;17.082;2022-09-27T10:31:13;18.73;;;10.20;;
54241;SDS011;40156;51.080;17.082;2022-09-27T10:37:23;18.83;;;11.35;;
54241;SDS011;40156;51.080;17.082;2022-09-27T10:43:30;20.48;;;11.38;;
54241;SDS011;40156;51.080;17.082;2022-09-27T10:48:35;20.00;;;10.45;;
54241;SDS011;40156;51.080;17.082;2022-09-27T10:51:04;19.20;;;11.10;;
54241;SDS011;40156;51.080;17.082;2022-09-27T10:53:33;17.85;;;11.00;;
54241;SDS011;40156;51.080;17.082;2022-09-27T10:56:01;18.77;;;10.80;;
54241;SDS011;40156;51.080;17.082;2022-09-27T10:58:33;21.48;;;11.35;;
54241;SDS011;40156;51.080;17.082;2022-09-27T11:01:05;17.92;;;10.82;;
54241;SDS011;40156;51.080;17.082;2022-09-27T11:07:10;18.08;;;10.85;;
54241;SDS011;40156;51.080;17.082;2022-09-27T11:09:46;19.80;;;11.52;;
54241;SDS011;40156;51.080;17.082;2022-09-27T11:12:14;20.20;;;10.68;;
54241;SDS011;40156;51.080;17.082;2022-09-27T11:14:42;19.50;;;10.55;;
54241;SDS011;40156;51.080;17.082;2022-09-27T11:19:47;18.40;;;10.98;;
54241;SDS011;40156;51.080;17.082;2022-09-27T11:22:29;20.58;;;12.27;;
54241;SDS011;40156;51.080;17.082;2022-09-27T11:28:39;21.52;;;11.35;;
54241;SDS011;40156;51.080;17.082;2022-09-27T11:31:30;20.67;;;8.70;;
54241;SDS011;40156;51.080;17.082;2022-09-27T11:39:31;18.70;;;11.30;;
54241;SDS011;40156;51.080;17.082;2022-09-27T11:47:54;17.45;;;9.68;;
54241;SDS011;40156;51.080;17.082;2022-09-27T12:01:44;13.07;;;7.68;;
54241;SDS011;40156;51.080;17.082;2022-09-27T12:06:52;10.00;;;5.78;;
54241;SDS011;40156;51.080;17.082;2022-09-27T12:12:55;7.60;;;4.03;;
54241;SDS011;40156;51.080;17.082;2022-09-27T12:18:55;9.80;;;5.75;;
54241;SDS011;40156;51.080;17.082;2022-09-27T12:21:23;9.13;;;6.28;;
54241;SDS011;40156;51.080;17.082;2022-09-27T12:27:36;8.05;;;5.50;;
54241;SDS011;40156;51.080;17.082;2022-09-27T12:30:05;8.80;;;5.50;;
54241;SDS011;40156;51.080;17.082;2022-09-27T12:32:34;10.85;;;5.57;;
54241;SDS011;40156;51.080;17.082;2022-09-27T12:38:42;9.30;;;6.13;;
54241;SDS011;40156;51.080;17.082;2022-09-27T12:41:12;11.18;;;6.43;;
54241;SDS011;40156;51.080;17.082;2022-09-27T12:43:44;11.85;;;7.00;;
54241;SDS011;40156;51.080;17.082;2022-09-27T12:51:20;9.30;;;5.63;;
54241;SDS011;40156;51.080;17.082;2022-09-27T12:56:28;10.75;;;6.28;;
54241;SDS011;40156;51.080;17.082;2022-09-27T13:01:52;12.25;;;6.22;;
54241;SDS011;40156;51.080;17.082;2022-09-27T13:12:57;7.40;;;5.57;;
54241;SDS011;40156;51.080;17.082;2022-09-27T13:15:30;11.50;;;6.38;;
54241;SDS011;40156;51.080;17.082;2022-09-27T13:17:58;10.10;;;5.63;;
54241;SDS011;40156;51.080;17.082;2022-09-27T13:22:54;10.63;;;5.95;;
54241;SDS011;40156;51.080;17.082;2022-09-27T13:41:29;9.57;;;6.18;;
54241;SDS011;40156;51.080;17.082;2022-09-27T13:46:44;8.77;;;5.68;;
54241;SDS011;40156;51.080;17.082;2022-09-27T13:51:50;11.10;;;6.28;;
54241;SDS011;40156;51.080;17.082;2022-09-27T13:57:37;10.98;;;6.63;;
54241;SDS011;40156;51.080;17.082;2022-09-27T13:59:53;9.90;;;5.45;;
54241;SDS011;40156;51.080;17.082;2022-09-27T14:02:26;12.02;;;7.28;;
54241;SDS011;40156;51.080;17.082;2022-09-27T14:07:32;11.95;;;6.65;;
54241;SDS011;40156;51.080;17.082;2022-09-27T14:10:01;9.75;;;6.32;;
54241;SDS011;40156;51.080;17.082;2022-09-27T14:12:33;12.40;;;7.57;;
54241;SDS011;40156;51.080;17.082;2022-09-27T14:15:00;10.02;;;5.63;;
54241;SDS011;40156;51.080;17.082;2022-09-27T14:17:29;10.48;;;6.10;;
54241;SDS011;40156;51.080;17.082;2022-09-27T14:19:56;9.18;;;5.80;;
54241;SDS011;40156;51.080;17.082;2022-09-27T14:22:24;10.65;;;6.70;;
54241;SDS011;40156;51.080;17.082;2022-09-27T14:24:52;8.10;;;4.93;;
54241;SDS011;40156;51.080;17.082;2022-09-27T14:27:23;10.85;;;6.97;;
54241;SDS011;40156;51.080;17.082;2022-09-27T14:32:22;12.23;;;8.38;;
54241;SDS011;40156;51.080;17.082;2022-09-27T14:37:33;7.43;;;5.00;;
54241;SDS011;40156;51.080;17.082;2022-09-27T14:40:01;7.65;;;3.95;;
54241;SDS011;40156;51.080;17.082;2022-09-27T14:42:31;5.20;;;3.67;;
54241;SDS011;40156;51.080;17.082;2022-09-27T14:45:00;9.45;;;5.68;;
54241;SDS011;40156;51.080;17.082;2022-09-27T14:47:28;10.45;;;5.63;;
54241;SDS011;40156;51.080;17.082;2022-09-27T14:52:24;7.43;;;4.53;;
54241;SDS011;40156;51.080;17.082;2022-09-27T14:57:39;10.82;;;5.43;;
54241;SDS011;40156;51.080;17.082;2022-09-27T15:00:21;8.65;;;4.80;;
54241;SDS011;40156;51.080;17.082;2022-09-27T15:02:50;10.35;;;6.20;;
54241;SDS011;40156;51.080;17.082;2022-09-27T15:05:18;11.82;;;5.75;;
54241;SDS011;40156;51.080;17.082;2022-09-27T15:11:18;9.35;;;5.60;;
54241;SDS011;40156;51.080;17.082;2022-09-27T15:13:46;11.75;;;7.45;;
54241;SDS011;40156;51.080;17.082;2022-09-27T15:16:16;31.88;;;17.58;;
54241;SDS011;40156;51.080;17.082;2022-09-27T15:18:45;16.98;;;10.20;;
54241;SDS011;40156;51.080;17.082;2022-09-27T15:21:14;9.63;;;6.00;;
54241;SDS011;40156;51.080;17.082;2022-09-27T15:27:19;10.85;;;6.45;;
54241;SDS011;40156;51.080;17.082;2022-09-27T15:29:48;10.20;;;5.18;;
54241;SDS011;40156;51.080;17.082;2022-09-27T15:32:16;7.63;;;5.20;;
54241;SDS011;40156;51.080;17.082;2022-09-27T15:34:46;8.07;;;5.38;;
54241;SDS011;40156;51.080;17.082;2022-09-27T15:37:24;8.48;;;5.38;;
54241;SDS011;40156;51.080;17.082;2022-09-27T15:39:52;9.75;;;6.13;;
54241;SDS011;40156;51.080;17.082;2022-09-27T15:42:20;9.32;;;5.68;;
54241;SDS011;40156;51.080;17.082;2022-09-27T15:44:51;9.70;;;5.40;;
54241;SDS011;40156;51.080;17.082;2022-09-27T15:50:01;10.25;;;6.38;;
54241;SDS011;40156;51.080;17.082;2022-09-27T15:52:46;13.63;;;7.10;;
54241;SDS011;40156;51.080;17.082;2022-09-27T15:58:36;10.65;;;6.10;;
54241;SDS011;40156;51.080;17.082;2022-09-27T16:01:04;16.80;;;6.97;;
54241;SDS011;40156;51.080;17.082;2022-09-27T16:03:32;17.05;;;8.30;;
54241;SDS011;40156;51.080;17.082;2022-09-27T16:06:00;13.82;;;6.97;;
54241;SDS011;40156;51.080;17.082;2022-09-27T16:08:28;12.00;;;6.47;;
54241;SDS011;40156;51.080;17.082;2022-09-27T16:10:56;12.02;;;6.65;;
54241;SDS011;40156;51.080;17.082;2022-09-27T16:13:24;13.98;;;7.07;;
54241;SDS011;40156;51.080;17.082;2022-09-27T16:15:59;12.75;;;6.47;;
54241;SDS011;40156;51.080;17.082;2022-09-27T16:21:49;12.73;;;7.30;;
54241;SDS011;40156;51.080;17.082;2022-09-27T16:27:42;9.98;;;6.50;;
54241;SDS011;40156;51.080;17.082;2022-09-27T16:33:41;3.95;;;1.73;;
54241;SDS011;40156;51.080;17.082;2022-09-27T16:36:08;2.80;;;1.70;;
54241;SDS011;40156;51.080;17.082;2022-09-27T16:38:37;2.72;;;0.95;;
54241;SDS011;40156;51.080;17.082;2022-09-27T16:41:04;0.70;;;0.60;;
54241;SDS011;40156;51.080;17.082;2022-09-27T16:43:31;1.35;;;0.80;;
54241;SDS011;40156;51.080;17.082;2022-09-27T16:46:02;0.87;;;0.50;;
54241;SDS011;40156;51.080;17.082;2022-09-27T16:48:30;3.03;;;0.50;;
54241;SDS011;40156;51.080;17.082;2022-09-27T16:54:29;1.85;;;0.60;;
54241;SDS011;40156;51.080;17.082;2022-09-27T16:56:57;1.42;;;0.50;;
54241;SDS011;40156;51.080;17.082;2022-09-27T16:59:25;1.00;;;0.50;;
54241;SDS011;40156;51.080;17.082;2022-09-27T17:01:52;2.00;;;0.63;;
54241;SDS011;40156;51.080;17.082;2022-09-27T17:04:20;1.08;;;0.60;;
54241;SDS011;40156;51.080;17.082;2022-09-27T17:06:47;0.55;;;0.55;;
54241;SDS011;40156;51.080;17.082;2022-09-27T17:09:15;0.77;;;0.50;;
54241;SDS011;40156;51.080;17.082;2022-09-27T17:11:42;1.23;;;0.60;;
54241;SDS011;40156;51.080;17.082;2022-09-27T17:17:41;1.90;;;0.70;;
54241;SDS011;40156;51.080;17.082;2022-09-27T17:23:40;1.13;;;0.80;;
54241;SDS011;40156;51.080;17.082;2022-09-27T17:26:13;1.33;;;0.93;;
54241;SDS011;40156;51.080;17.082;2022-09-27T17:28:40;1.23;;;0.80;;
54241;SDS011;40156;51.080;17.082;2022-09-27T17:31:09;3.63;;;1.10;;
54241;SDS011;40156;51.080;17.082;2022-09-27T17:33:39;2.03;;;0.93;;
54241;SDS011;40156;51.080;17.082;2022-09-27T17:39:38;2.65;;;1.33;;
54241;SDS011;40156;51.080;17.082;2022-09-27T17:42:05;2.40;;;1.55;;
54241;SDS011;40156;51.080;17.082;2022-09-27T17:48:04;3.08;;;1.75;;
54241;SDS011;40156;51.080;17.082;2022-09-27T17:50:31;2.45;;;1.60;;
54241;SDS011;40156;51.080;17.082;2022-09-27T17:52:59;4.57;;;2.05;;
54241;SDS011;40156;51.080;17.082;2022-09-27T17:55:28;5.45;;;2.33;;
54241;SDS011;40156;51.080;17.082;2022-09-27T17:57:56;8.63;;;3.45;;
54241;SDS011;40156;51.080;17.082;2022-09-27T18:00:23;7.63;;;3.75;;
54241;SDS011;40156;51.080;17.082;2022-09-27T18:02:51;6.65;;;2.88;;
54241;SDS011;40156;51.080;17.082;2022-09-27T18:08:41;6.67;;;3.30;;
54241;SDS011;40156;51.080;17.082;2022-09-27T18:11:10;8.25;;;4.07;;
54241;SDS011;40156;51.080;17.082;2022-09-27T18:13:38;7.85;;;3.78;;
54241;SDS011;40156;51.080;17.082;2022-09-27T18:16:06;7.75;;;4.68;;
54241;SDS011;40156;51.080;17.082;2022-09-27T18:18:34;7.95;;;4.00;;
54241;SDS011;40156;51.080;17.082;2022-09-27T18:21:02;7.53;;;3.90;;
54241;SDS011;40156;51.080;17.082;2022-09-27T18:23:30;7.57;;;3.92;;
54241;SDS011;40156;51.080;17.082;2022-09-27T18:25:58;7.20;;;4.35;;
54241;SDS011;40156;51.080;17.082;2022-09-27T18:28:26;7.75;;;3.83;;
54241;SDS011;40156;51.080;17.082;2022-09-27T18:30:53;8.40;;;4.28;;
54241;SDS011;40156;51.080;17.082;2022-09-27T18:36:52;5.93;;;3.88;;
54241;SDS011;40156;51.080;17.082;2022-09-27T18:39:20;7.95;;;4.30;;
54241;SDS011;40156;51.080;17.082;2022-09-27T18:41:47;7.68;;;4.90;;
54241;SDS011;40156;51.080;17.082;2022-09-27T18:44:15;12.07;;;6.80;;
54241;SDS011;40156;51.080;17.082;2022-09-27T18:46:43;13.73;;;7.03;;
54241;SDS011;40156;51.080;17.082;2022-09-27T18:49:12;16.63;;;7.03;;
54241;SDS011;40156;51.080;17.082;2022-09-27T18:51:40;12.00;;;5.90;;
54241;SDS011;40156;51.080;17.082;2022-09-27T18:57:39;10.48;;;4.68;;
54241;SDS011;40156;51.080;17.082;2022-09-27T19:03:42;7.32;;;4.03;;
54241;SDS011;40156;51.080;17.082;2022-09-27T19:06:11;7.95;;;4.43;;
54241;SDS011;40156;51.080;17.082;2022-09-27T19:08:42;8.13;;;4.70;;
54241;SDS011;40156;51.080;17.082;2022-09-27T19:11:13;9.93;;;5.63;;
54241;SDS011;40156;51.080;17.082;2022-09-27T19:13:42;10.20;;;4.25;;
54241;SDS011;40156;51.080;17.082;2022-09-27T19:16:18;9.85;;;5.05;;
54241;SDS011;40156;51.080;17.082;2022-09-27T19:18:46;8.73;;;4.43;;
54241;SDS011;40156;51.080;17.082;2022-09-27T19:21:14;10.57;;;4.93;;
54241;SDS011;40156;51.080;17.082;2022-09-27T19:23:42;8.43;;;4.38;;
54241;SDS011;40156;51.080;17.082;2022-09-27T19:29:31;6.57;;;4.20;;
54241;SDS011;40156;51.080;17.082;2022-09-27T19:31:59;10.38;;;4.93;;
54241;SDS011;40156;51.080;17.082;2022-09-27T19:34:26;7.53;;;4.13;;
54241;SDS011;40156;51.080;17.082;2022-09-27T19:36:56;10.02;;;3.90;;
54241;SDS011;40156;51.080;17.082;2022-09-27T19:39:45;8.03;;;4.60;;
54241;SDS011;40156;51.080;17.082;2022-09-27T19:42:35;7.97;;;3.65;;
54241;SDS011;40156;51.080;17.082;2022-09-27T19:45:02;9.52;;;4.90;;
54241;SDS011;40156;51.080;17.082;2022-09-27T19:47:38;13.93;;;5.00;;
54241;SDS011;40156;51.080;17.082;2022-09-27T19:50:06;9.00;;;4.22;;
54241;SDS011;40156;51.080;17.082;2022-09-27T19:52:45;5.70;;;3.38;;
54241;SDS011;40156;51.080;17.082;2022-09-27T19:55:13;6.43;;;3.58;;
54241;SDS011;40156;51.080;17.082;2022-09-27T19:57:40;5.70;;;3.35;;
54241;SDS011;40156;51.080;17.082;2022-09-27T20:00:08;6.55;;;3.17;;
54241;SDS011;40156;51.080;17.082;2022-09-27T20:02:36;4.68;;;2.92;;
54241;SDS011;40156;51.080;17.082;2022-09-27T20:05:04;5.88;;;3.17;;
54241;SDS011;40156;51.080;17.082;2022-09-27T20:07:32;6.50;;;3.28;;
54241;SDS011;40156;51.080;17.082;2022-09-27T20:10:00;10.93;;;4.05;;
54241;SDS011;40156;51.080;17.082;2022-09-27T20:12:28;10.60;;;5.10;;
54241;SDS011;40156;51.080;17.082;2022-09-27T20:14:55;17.65;;;8.25;;
54241;SDS011;40156;51.080;17.082;2022-09-27T20:17:22;24.77;;;12.02;;
54241;SDS011;40156;51.080;17.082;2022-09-27T20:19:50;32.35;;;13.93;;
54241;SDS011;40156;51.080;17.082;2022-09-27T20:22:17;22.92;;;11.50;;
54241;SDS011;40156;51.080;17.082;2022-09-27T20:24:45;20.02;;;9.90;;
54241;SDS011;40156;51.080;17.082;2022-09-27T20:27:12;19.10;;;8.85;;
54241;SDS011;40156;51.080;17.082;2022-09-27T20:29:40;16.30;;;8.85;;
54241;SDS011;40156;51.080;17.082;2022-09-27T20:32:07;10.45;;;5.57;;
54241;SDS011;40156;51.080;17.082;2022-09-27T20:34:53;12.23;;;6.25;;
54241;SDS011;40156;51.080;17.082;2022-09-27T20:37:24;9.52;;;5.20;;
54241;SDS011;40156;51.080;17.082;2022-09-27T20:39:52;9.73;;;4.90;;
54241;SDS011;40156;51.080;17.082;2022-09-27T20:42:19;10.15;;;5.75;;
54241;SDS011;40156;51.080;17.082;2022-09-27T20:44:46;8.63;;;5.40;;
54241;SDS011;40156;51.080;17.082;2022-09-27T20:47:20;8.40;;;4.90;;
54241;SDS011;40156;51.080;17.082;2022-09-27T20:49:47;9.40;;;5.75;;
54241;SDS011;40156;51.080;17.082;2022-09-27T20:52:15;10.02;;;5.75;;
54241;SDS011;40156;51.080;17.082;2022-09-27T20:54:42;10.45;;;5.70;;
54241;SDS011;40156;51.080;17.082;2022-09-27T20:57:10;9.13;;;5.40;;
54241;SDS011;40156;51.080;17.082;2022-09-27T20:59:37;10.45;;;5.60;;
54241;SDS011;40156;51.080;17.082;2022-09-27T21:02:04;11.15;;;5.53;;
54241;SDS011;40156;51.080;17.082;2022-09-27T21:04:32;9.30;;;5.10;;
54241;SDS011;40156;51.080;17.082;2022-09-27T21:06:59;10.27;;;4.32;;
54241;SDS011;40156;51.080;17.082;2022-09-27T21:09:26;7.03;;;3.95;;
54241;SDS011;40156;51.080;17.082;2022-09-27T21:12:00;7.40;;;4.82;;
54241;SDS011;40156;51.080;17.082;2022-09-27T21:14:27;9.93;;;4.07;;
54241;SDS011;40156;51.080;17.082;2022-09-27T21:17:00;9.32;;;4.43;;
54241;SDS011;40156;51.080;17.082;2022-09-27T21:19:28;7.93;;;4.18;;
54241;SDS011;40156;51.080;17.082;2022-09-27T21:21:55;6.65;;;3.45;;
54241;SDS011;40156;51.080;17.082;2022-09-27T21:24:23;9.82;;;4.45;;
54241;SDS011;40156;51.080;17.082;2022-09-27T21:26:50;7.30;;;3.83;;
54241;SDS011;40156;51.080;17.082;2022-09-27T21:29:17;5.93;;;3.35;;
54241;SDS011;40156;51.080;17.082;2022-09-27T21:31:45;7.10;;;3.80;;
54241;SDS011;40156;51.080;17.082;2022-09-27T21:34:12;5.45;;;3.13;;